createdAt,value
2023-01-10T00:02:11.192Z,0.82
2023-01-10T00:04:37.957Z,0.80
2023-01-10T00:07:04.687Z,1.90
2023-01-10T00:09:32.778Z,1.67
2023-01-10T00:11:59.502Z,0.70
2023-01-10T00:14:27.360Z,1.48
2023-01-10T00:16:54.086Z,1.30
2023-01-10T00:19:20.910Z,1.02
2023-01-10T00:21:47.679Z,1.95
2023-01-10T00:24:14.499Z,0.90
2023-01-10T00:26:44.408Z,0.68
2023-01-10T00:29:11.253Z,0.88
2023-01-10T00:31:37.977Z,1.05
2023-01-10T00:34:04.672Z,1.63
2023-01-10T00:36:31.389Z,1.13
2023-01-10T00:38:58.095Z,0.93
2023-01-10T00:41:24.905Z,1.10
2023-01-10T00:43:52.959Z,0.68
2023-01-10T00:46:19.704Z,0.88
2023-01-10T00:48:46.455Z,0.95
2023-01-10T00:51:13.163Z,1.33
2023-01-10T00:53:39.981Z,1.52
2023-01-10T00:56:07.204Z,2.60
2023-01-10T00:58:33.955Z,1.10
2023-01-10T01:01:02.160Z,1.30
2023-01-10T01:03:28.871Z,0.95
2023-01-10T01:05:55.580Z,0.93
2023-01-10T01:08:22.284Z,1.52
2023-01-10T01:10:49.044Z,1.27
2023-01-10T01:13:17.647Z,2.35
2023-01-10T01:15:45.159Z,1.38
2023-01-10T01:18:15.661Z,2.65
2023-01-10T01:20:42.625Z,1.17
2023-01-10T01:23:09.625Z,1.00
2023-01-10T01:25:36.397Z,2.13
2023-01-10T01:28:03.753Z,1.15
2023-01-10T01:30:30.497Z,1.33
2023-01-10T01:32:57.478Z,1.15
2023-01-10T01:35:25.625Z,1.48
2023-01-10T01:37:52.613Z,1.98
2023-01-10T01:40:21.429Z,0.93
2023-01-10T01:42:49.043Z,2.22
2023-01-10T01:45:34.059Z,1.85
2023-01-10T01:48:07.469Z,2.50
2023-01-10T01:50:40.433Z,1.23
2023-01-10T01:53:11.718Z,0.98
2023-01-10T01:55:39.785Z,1.63
2023-01-10T01:58:12.325Z,2.28
2023-01-10T02:00:39.101Z,0.60
2023-01-10T02:03:06.206Z,1.10
2023-01-10T02:05:37.384Z,1.60
2023-01-10T02:08:04.375Z,0.85
2023-01-10T02:10:38.234Z,1.33
2023-01-10T02:13:07.573Z,1.17
2023-01-10T02:15:34.730Z,2.15
2023-01-10T02:18:03.524Z,2.38
2023-01-10T02:20:37.250Z,1.50
2023-01-10T02:23:45.860Z,0.70
2023-01-10T02:26:39.278Z,1.38
2023-01-10T02:29:32.418Z,1.05
2023-01-10T02:32:40.798Z,1.92
2023-01-10T02:35:27.710Z,1.48
2023-01-10T02:38:04.462Z,2.28
2023-01-10T02:40:39.119Z,2.80
2023-01-10T02:43:11.651Z,2.53
2023-01-10T02:45:43.461Z,1.85
2023-01-10T02:48:11.479Z,2.03
2023-01-10T02:50:53.585Z,2.15
2023-01-10T02:53:27.491Z,1.05
2023-01-10T02:56:12.859Z,1.17
2023-01-10T02:58:51.686Z,1.52
2023-01-10T03:01:29.368Z,1.23
2023-01-10T03:04:05.769Z,1.10
2023-01-10T03:06:39.709Z,1.42
2023-01-10T03:09:14.782Z,0.95
2023-01-10T03:11:44.042Z,1.00
2023-01-10T03:14:16.799Z,1.00
2023-01-10T03:16:48.781Z,2.45
2023-01-10T03:19:21.336Z,1.58
2023-01-10T03:21:51.235Z,1.48
2023-01-10T03:24:20.669Z,2.22
2023-01-10T03:26:52.477Z,1.05
2023-01-10T03:29:23.561Z,1.23
2023-01-10T03:31:54.383Z,1.77
2023-01-10T03:34:23.945Z,1.08
2023-01-10T03:36:58.305Z,2.25
2023-01-10T03:39:32.795Z,4.50
2023-01-10T03:42:07.455Z,1.20
2023-01-10T03:44:41.009Z,1.73
2023-01-10T03:47:11.523Z,1.38
2023-01-10T03:49:41.772Z,1.65
2023-01-10T03:52:14.543Z,2.15
2023-01-10T03:54:42.627Z,1.38
2023-01-10T03:57:16.283Z,2.60
2023-01-10T03:59:43.247Z,3.40
2023-01-10T04:02:10.103Z,0.80
2023-01-10T04:04:36.790Z,1.65
2023-01-10T04:07:05.075Z,1.05
2023-01-10T04:09:31.817Z,6.30
2023-01-10T04:11:58.522Z,1.42
2023-01-10T04:14:25.185Z,0.90
2023-01-10T04:16:51.887Z,1.13
2023-01-10T04:19:18.575Z,1.75
2023-01-10T04:21:45.287Z,2.00
2023-01-10T04:24:13.392Z,1.48
2023-01-10T04:26:40.103Z,1.27
2023-01-10T04:29:06.848Z,2.25
2023-01-10T04:31:33.646Z,1.35
2023-01-10T04:34:00.458Z,1.23
2023-01-10T04:36:27.142Z,3.03
2023-01-10T04:38:53.893Z,1.48
2023-01-10T04:41:21.947Z,3.95
2023-01-10T04:43:48.647Z,1.10
2023-01-10T04:46:15.413Z,0.98
2023-01-10T04:48:42.100Z,1.83
2023-01-10T04:51:09.278Z,1.77
2023-01-10T04:53:35.969Z,1.45
2023-01-10T04:56:03.519Z,1.25
2023-01-10T04:58:32.816Z,1.33
2023-01-10T05:00:59.574Z,0.77
2023-01-10T05:03:26.284Z,1.52
2023-01-10T05:05:53.225Z,1.85
2023-01-10T05:08:19.952Z,1.40
2023-01-10T05:10:46.660Z,1.95
2023-01-10T05:13:13.342Z,2.35
2023-01-10T05:15:41.366Z,2.13
2023-01-10T05:18:08.085Z,2.75
2023-01-10T05:20:34.852Z,2.10
2023-01-10T05:23:01.558Z,1.67
2023-01-10T05:25:28.244Z,1.27
2023-01-10T05:27:54.913Z,2.13
2023-01-10T05:30:21.730Z,1.33
2023-01-10T05:32:49.783Z,1.40
2023-01-10T05:35:17.041Z,2.28
2023-01-10T05:37:43.813Z,4.10
2023-01-10T05:40:11.765Z,2.45
2023-01-10T05:42:38.450Z,2.03
2023-01-10T05:45:05.887Z,2.10
2023-01-10T05:47:32.576Z,2.05
2023-01-10T05:50:00.644Z,3.20
2023-01-10T05:52:27.360Z,2.38
2023-01-10T05:54:54.084Z,2.10
2023-01-10T05:57:20.802Z,2.50
2023-01-10T05:59:47.616Z,2.10
2023-01-10T06:02:14.406Z,3.28
2023-01-10T06:04:41.274Z,1.85
2023-01-10T06:07:09.465Z,2.50
2023-01-10T06:09:36.225Z,2.42
2023-01-10T06:12:03.017Z,3.00
2023-01-10T06:14:29.781Z,2.22
2023-01-10T06:16:56.465Z,2.80
2023-01-10T06:19:23.195Z,4.03
2023-01-10T06:21:49.874Z,1.38
2023-01-10T06:24:18.394Z,1.77
2023-01-10T06:26:45.215Z,1.23
2023-01-10T06:29:11.896Z,1.00
2023-01-10T06:31:38.635Z,1.20
2023-01-10T06:34:05.394Z,1.52
2023-01-10T06:36:32.117Z,1.20
2023-01-10T06:38:58.815Z,1.70
2023-01-10T06:41:26.864Z,2.03
2023-01-10T06:43:53.552Z,1.70
2023-01-10T06:46:20.519Z,1.90
2023-01-10T06:48:47.782Z,2.25
2023-01-10T06:51:15.825Z,1.60
2023-01-10T06:53:43.008Z,1.85
2023-01-10T06:56:10.300Z,1.05
2023-01-10T06:58:39.051Z,1.42
2023-01-10T07:01:06.553Z,1.55
2023-01-10T07:03:33.503Z,2.17
2023-01-10T07:06:01.836Z,1.77
2023-01-10T07:08:28.579Z,2.78
2023-01-10T07:10:58.152Z,1.70
2023-01-10T07:13:24.914Z,1.80
2023-01-10T07:15:53.063Z,2.22
2023-01-10T07:18:19.786Z,3.03
2023-01-10T07:20:46.496Z,2.38
2023-01-10T07:23:13.193Z,2.33
2023-01-10T07:25:39.889Z,1.40
2023-01-10T07:28:06.907Z,1.88
2023-01-10T07:30:33.613Z,1.33
2023-01-10T07:33:01.655Z,1.67
2023-01-10T07:35:28.342Z,2.60
2023-01-10T07:37:58.353Z,2.00
2023-01-10T07:40:25.146Z,1.42
2023-01-10T07:42:56.749Z,6.18
2023-01-10T07:45:23.734Z,2.88
2023-01-10T07:47:50.449Z,4.03
2023-01-10T07:50:18.691Z,1.50
2023-01-10T07:52:45.395Z,1.88
2023-01-10T07:55:12.098Z,4.00
2023-01-10T07:57:38.783Z,1.25
2023-01-10T08:00:06.612Z,2.60
2023-01-10T08:02:33.434Z,2.53
2023-01-10T08:05:00.265Z,1.73
2023-01-10T08:07:30.519Z,2.90
2023-01-10T08:09:57.250Z,1.63
2023-01-10T08:12:24.166Z,2.28
2023-01-10T08:14:50.877Z,4.07
2023-01-10T08:17:17.770Z,2.03
2023-01-10T08:19:44.811Z,1.38
2023-01-10T08:22:11.575Z,1.20
2023-01-10T08:24:39.615Z,2.88
2023-01-10T08:27:06.307Z,1.92
2023-01-10T08:29:33.016Z,1.98
2023-01-10T08:31:59.766Z,2.80
2023-01-10T08:34:26.641Z,1.55
2023-01-10T08:36:54.292Z,2.63
2023-01-10T08:39:21.937Z,3.08
2023-01-10T08:41:50.006Z,2.53
2023-01-10T08:44:16.705Z,1.38
2023-01-10T08:46:43.501Z,2.95
2023-01-10T08:49:10.226Z,4.57
2023-01-10T08:51:36.987Z,3.80
2023-01-10T08:54:03.754Z,2.75
2023-01-10T08:56:30.494Z,2.60
2023-01-10T08:58:58.531Z,4.50
2023-01-10T09:01:25.544Z,2.92
2023-01-10T09:03:52.383Z,1.80
2023-01-10T09:06:19.073Z,1.23
2023-01-10T09:08:45.774Z,1.42
2023-01-10T09:11:12.471Z,2.20
2023-01-10T09:13:39.175Z,2.60
2023-01-10T09:16:07.902Z,2.55
2023-01-10T09:18:35.032Z,1.73
2023-01-10T09:21:02.195Z,2.92
2023-01-10T09:23:28.913Z,1.98
2023-01-10T09:25:55.816Z,1.95
2023-01-10T09:28:22.788Z,2.42
2023-01-10T09:30:49.806Z,5.72
2023-01-10T09:33:18.766Z,3.10
2023-01-10T09:35:45.807Z,2.33
2023-01-10T09:38:14.816Z,2.53
2023-01-10T09:40:59.117Z,2.47
2023-01-10T09:43:35.100Z,2.22
2023-01-10T09:46:06.047Z,2.03
2023-01-10T09:48:40.915Z,3.10
2023-01-10T09:51:23.812Z,4.20
2023-01-10T09:53:57.718Z,6.38
2023-01-10T09:56:28.870Z,3.38
2023-01-10T09:58:56.636Z,2.63
2023-01-10T10:01:27.559Z,2.63
2023-01-10T10:04:03.995Z,2.55
2023-01-10T10:06:30.899Z,2.53
2023-01-10T10:08:57.809Z,5.03
2023-01-10T10:11:43.419Z,2.80
2023-01-10T10:14:18.164Z,5.60
2023-01-10T10:17:01.790Z,1.52
2023-01-10T10:19:37.777Z,3.92
2023-01-10T10:22:12.750Z,2.40
2023-01-10T10:24:55.546Z,2.47
2023-01-10T10:27:24.314Z,4.50
2023-01-10T10:30:10.460Z,6.18
2023-01-10T10:32:59.934Z,4.85
2023-01-10T10:35:32.581Z,5.57
2023-01-10T10:38:05.669Z,1.85
2023-01-10T10:40:37.072Z,1.70
2023-01-10T10:43:15.452Z,3.92
2023-01-10T10:45:46.839Z,4.07
2023-01-10T10:48:18.193Z,5.25
2023-01-10T10:50:54.255Z,2.90
2023-01-10T10:53:20.995Z,3.30
2023-01-10T10:55:48.327Z,2.78
2023-01-10T10:58:15.141Z,4.22
2023-01-10T11:00:41.968Z,3.83
2023-01-10T11:03:27.024Z,6.45
2023-01-10T11:05:55.997Z,2.78
2023-01-10T11:08:23.782Z,3.20
2023-01-10T11:10:53.854Z,2.28
2023-01-10T11:13:30.763Z,4.40
2023-01-10T11:15:58.368Z,1.65
2023-01-10T11:18:26.711Z,3.47
2023-01-10T11:20:58.043Z,1.90
2023-01-10T11:23:34.611Z,1.50
2023-01-10T11:26:02.087Z,4.32
2023-01-10T11:28:31.889Z,1.23
2023-01-10T11:30:59.555Z,2.60
2023-01-10T11:33:29.497Z,4.55
2023-01-10T11:36:00.525Z,4.22
2023-01-10T11:38:27.793Z,6.88
2023-01-10T11:40:56.834Z,1.10
2023-01-10T11:43:27.147Z,1.85
2023-01-10T11:45:56.200Z,1.67
2023-01-10T11:48:42.354Z,3.70
2023-01-10T11:51:24.037Z,3.63
2023-01-10T11:53:56.164Z,0.82
2023-01-10T11:56:26.106Z,4.80
2023-01-10T11:58:53.720Z,2.92
2023-01-10T12:01:27.948Z,1.52
2023-01-10T12:03:55.910Z,4.60
2023-01-10T12:06:24.423Z,1.90
2023-01-10T12:08:51.207Z,4.60
2023-01-10T12:11:26.792Z,1.70
2023-01-10T12:13:55.753Z,3.95
2023-01-10T12:16:24.911Z,5.85
2023-01-10T12:18:53.763Z,2.13
2023-01-10T12:21:28.013Z,3.03
2023-01-10T12:23:57.708Z,5.53
2023-01-10T12:26:27.198Z,5.32
2023-01-10T12:28:58.813Z,2.47
2023-01-10T12:31:27.557Z,1.83
2023-01-10T12:33:58.764Z,3.70
2023-01-10T12:36:44.458Z,8.02
2023-01-10T12:39:15.556Z,3.60
2023-01-10T12:41:51.850Z,1.00
2023-01-10T12:44:22.423Z,12.15
2023-01-10T12:47:06.490Z,1.45
2023-01-10T12:52:10.855Z,3.30
2023-01-10T12:54:37.696Z,1.55
2023-01-10T12:57:22.881Z,1.27
2023-01-10T12:59:50.420Z,1.60
2023-01-10T13:02:19.312Z,0.65
2023-01-10T13:04:51.085Z,4.72
2023-01-10T13:07:20.478Z,0.95
2023-01-10T13:09:48.235Z,4.50
2023-01-10T13:12:21.851Z,0.93
2023-01-10T13:14:54.889Z,3.40
2023-01-10T13:17:33.879Z,3.30
2023-01-10T13:20:26.278Z,4.60
2023-01-10T13:22:57.049Z,1.80
2023-01-10T13:25:26.289Z,3.47
2023-01-10T13:27:57.469Z,6.57
2023-01-10T13:30:26.980Z,2.35
2023-01-10T13:33:01.395Z,1.00
2023-01-10T13:35:36.721Z,4.05
2023-01-10T13:38:05.185Z,2.40
2023-01-10T13:40:32.036Z,1.17
2023-01-10T13:43:38.202Z,3.20
2023-01-10T13:46:37.373Z,6.35
2023-01-10T13:49:40.732Z,3.65
2023-01-10T13:52:37.536Z,4.63
2023-01-10T13:55:28.996Z,5.30
2023-01-10T13:57:58.273Z,1.05
2023-01-10T14:00:40.787Z,1.40
2023-01-10T14:03:07.655Z,4.85
2023-01-10T14:05:34.677Z,1.60
2023-01-10T14:08:01.854Z,3.67
2023-01-10T14:10:32.680Z,4.93
2023-01-10T14:13:02.247Z,1.48
2023-01-10T14:15:31.050Z,2.28
2023-01-10T14:18:00.857Z,6.88
2023-01-10T14:20:29.766Z,1.95
2023-01-10T14:23:06.211Z,3.67
2023-01-10T14:25:36.469Z,3.40
2023-01-10T14:28:05.761Z,3.03
2023-01-10T14:30:35.140Z,2.72
2023-01-10T14:33:06.135Z,1.85
2023-01-10T14:35:38.093Z,2.70
2023-01-10T14:38:08.450Z,3.80
2023-01-10T14:40:42.161Z,2.05
2023-01-10T14:43:15.466Z,0.73
2023-01-10T14:45:49.466Z,1.17
2023-01-10T14:48:28.647Z,0.80
2023-01-10T14:51:08.396Z,2.95
2023-01-10T14:53:35.285Z,2.88
2023-01-10T14:56:03.392Z,1.45
2023-01-10T14:58:30.149Z,1.67
2023-01-10T15:00:57.048Z,1.17
2023-01-10T15:03:25.177Z,1.65
2023-01-10T15:05:53.582Z,4.30
2023-01-10T15:08:23.663Z,3.10
2023-01-10T15:10:54.383Z,1.35
2023-01-10T15:13:25.895Z,1.60
2023-01-10T15:15:53.068Z,1.67
2023-01-10T15:18:31.118Z,1.52
2023-01-10T15:20:58.172Z,1.08
2023-01-10T15:23:24.939Z,1.58
2023-01-10T15:25:57.206Z,1.83
2023-01-10T15:28:27.111Z,4.43
2023-01-10T15:30:55.003Z,2.95
2023-01-10T15:33:26.757Z,1.77
2023-01-10T15:35:53.944Z,1.17
2023-01-10T15:38:22.928Z,2.45
2023-01-10T15:40:55.918Z,1.70
2023-01-10T15:43:26.471Z,0.75
2023-01-10T15:45:53.645Z,0.57
2023-01-10T15:48:28.695Z,0.90
2023-01-10T15:50:57.430Z,1.38
2023-01-10T15:53:52.562Z,2.67
2023-01-10T15:56:21.833Z,4.85
2023-01-10T15:58:49.903Z,0.98
2023-01-10T16:01:17.262Z,1.83
2023-01-10T16:03:47.245Z,0.50
2023-01-10T16:06:22.481Z,6.22
2023-01-10T16:08:51.888Z,0.93
2023-01-10T16:11:22.791Z,0.85
2023-01-10T16:13:50.891Z,1.00
2023-01-10T16:16:20.032Z,1.77
2023-01-10T16:18:47.628Z,1.88
2023-01-10T16:21:14.438Z,3.42
2023-01-10T16:23:43.575Z,0.85
2023-01-10T16:26:10.341Z,1.52
2023-01-10T16:28:37.064Z,0.93
2023-01-10T16:31:06.872Z,2.40
2023-01-10T16:33:34.676Z,3.47
2023-01-10T16:36:01.419Z,1.40
2023-01-10T16:38:29.100Z,1.05
2023-01-10T16:40:58.268Z,3.00
2023-01-10T16:43:25.330Z,1.40
2023-01-10T16:45:54.779Z,1.08
2023-01-10T16:48:22.961Z,1.15
2023-01-10T16:50:49.701Z,4.03
2023-01-10T16:53:18.005Z,2.38
2023-01-10T16:55:46.423Z,3.70
2023-01-10T16:58:14.251Z,7.97
2023-01-10T17:00:43.240Z,3.58
2023-01-10T17:03:15.712Z,2.80
2023-01-10T17:05:43.991Z,5.50
2023-01-10T17:08:16.301Z,4.70
2023-01-10T17:10:43.582Z,2.50
2023-01-10T17:13:11.901Z,2.85
2023-01-10T17:15:38.635Z,6.20
2023-01-10T17:18:05.451Z,4.60
2023-01-10T17:20:32.150Z,4.38
2023-01-10T17:23:00.200Z,2.53
2023-01-10T17:25:26.906Z,8.73
2023-01-10T17:27:53.634Z,4.75
2023-01-10T17:30:22.746Z,1.77
2023-01-10T17:32:49.453Z,6.45
2023-01-10T17:35:16.230Z,5.53
2023-01-10T17:37:42.928Z,2.28
2023-01-10T17:40:12.197Z,1.83
2023-01-10T17:42:39.007Z,3.35
2023-01-10T17:45:06.613Z,3.33
2023-01-10T17:47:33.724Z,2.22
2023-01-10T17:50:00.921Z,1.73
2023-01-10T17:52:28.340Z,2.33
2023-01-10T17:54:59.669Z,2.00
2023-01-10T17:57:28.338Z,3.58
2023-01-10T17:59:55.640Z,1.85
2023-01-10T18:02:22.951Z,5.75
2023-01-10T18:04:49.865Z,2.15
2023-01-10T18:07:16.591Z,2.67
2023-01-10T18:09:43.262Z,0.80
2023-01-10T18:12:09.949Z,3.10
2023-01-10T18:14:37.989Z,2.65
2023-01-10T18:17:07.162Z,1.80
2023-01-10T18:19:34.255Z,1.60
2023-01-10T18:22:01.043Z,3.50
2023-01-10T18:24:27.845Z,3.70
2023-01-10T18:26:54.567Z,5.10
2023-01-10T18:29:21.424Z,2.65
2023-01-10T18:31:49.865Z,5.07
2023-01-10T18:34:16.582Z,3.67
2023-01-10T18:36:43.307Z,4.13
2023-01-10T18:39:10.001Z,4.65
2023-01-10T18:41:36.719Z,6.70
2023-01-10T18:44:03.679Z,2.65
2023-01-10T18:46:30.496Z,8.18
2023-01-10T18:48:58.551Z,3.15
2023-01-10T18:51:25.259Z,1.58
2023-01-10T18:53:52.264Z,3.38
2023-01-10T18:56:19.257Z,1.55
2023-01-10T18:58:45.968Z,2.58
2023-01-10T19:01:14.326Z,2.75
2023-01-10T19:03:41.139Z,2.15
2023-01-10T19:06:11.977Z,2.38
2023-01-10T19:08:39.303Z,3.92
2023-01-10T19:11:13.915Z,5.82
2023-01-10T19:13:41.081Z,8.77
2023-01-10T19:16:10.286Z,11.27
2023-01-10T19:18:37.042Z,4.78
2023-01-10T19:21:04.155Z,7.95
2023-01-10T19:23:33.084Z,6.93
2023-01-10T19:25:59.884Z,8.93
2023-01-10T19:28:29.547Z,4.72
2023-01-10T19:31:04.094Z,4.07
2023-01-10T19:33:31.718Z,7.25
2023-01-10T19:35:58.421Z,8.68
2023-01-10T19:38:25.136Z,7.57
2023-01-10T19:40:53.262Z,9.45
2023-01-10T19:43:20.973Z,12.63
2023-01-10T19:45:47.675Z,12.90
2023-01-10T19:48:14.426Z,8.85
2023-01-10T19:50:41.270Z,6.55
2023-01-10T19:53:08.046Z,4.80
2023-01-10T19:55:35.011Z,9.52
2023-01-10T19:58:03.339Z,5.40
2023-01-10T20:00:30.187Z,6.00
2023-01-10T20:02:57.004Z,9.93
2023-01-10T20:05:23.971Z,6.95
2023-01-10T20:07:51.362Z,7.50
2023-01-10T20:10:18.970Z,5.75
2023-01-10T20:12:45.703Z,5.75
2023-01-10T20:15:13.757Z,6.13
2023-01-10T20:17:40.557Z,6.55
2023-01-10T20:20:09.038Z,9.57
2023-01-10T20:22:35.757Z,6.30
2023-01-10T20:25:02.466Z,8.70
2023-01-10T20:27:30.059Z,6.50
2023-01-10T20:29:56.764Z,10.77
2023-01-10T20:32:24.835Z,6.63
2023-01-10T20:34:51.569Z,7.30
2023-01-10T20:37:18.250Z,4.78
2023-01-10T20:39:45.856Z,10.73
2023-01-10T20:42:12.559Z,4.40
2023-01-10T20:44:40.140Z,9.10
2023-01-10T20:47:06.858Z,8.52
2023-01-10T20:49:34.895Z,10.90
2023-01-10T20:52:01.587Z,7.57
2023-01-10T20:54:28.274Z,7.55
2023-01-10T20:56:54.995Z,7.68
2023-01-10T20:59:21.724Z,6.20
2023-01-10T21:01:48.443Z,4.38
2023-01-10T21:04:15.400Z,4.45
2023-01-10T21:06:43.518Z,6.53
2023-01-10T21:09:10.624Z,4.78
2023-01-10T21:11:52.106Z,6.68
2023-01-10T21:14:24.171Z,8.48
2023-01-10T21:16:50.853Z,6.45
2023-01-10T21:19:17.563Z,6.30
2023-01-10T21:21:45.708Z,7.55
2023-01-10T21:24:12.427Z,9.38
2023-01-10T21:26:39.397Z,8.50
2023-01-10T21:29:06.265Z,12.25
2023-01-10T21:31:33.086Z,9.23
2023-01-10T21:33:59.843Z,7.10
2023-01-10T21:36:26.559Z,9.50
2023-01-10T21:38:54.603Z,9.23
2023-01-10T21:41:21.348Z,10.63
2023-01-10T21:43:48.044Z,11.45
2023-01-10T21:46:14.805Z,8.52
2023-01-10T21:48:41.574Z,4.18
2023-01-10T21:51:08.288Z,6.60
2023-01-10T21:53:35.015Z,5.88
2023-01-10T21:56:03.048Z,4.13
2023-01-10T21:58:29.751Z,2.78
2023-01-10T22:00:57.690Z,4.38
2023-01-10T22:03:24.816Z,6.40
2023-01-10T22:05:51.580Z,5.35
2023-01-10T22:08:18.306Z,5.65
2023-01-10T22:10:45.083Z,7.80
2023-01-10T22:13:13.149Z,3.90
2023-01-10T22:15:39.839Z,5.75
2023-01-10T22:18:06.635Z,5.25
2023-01-10T22:20:33.361Z,8.07
2023-01-10T22:23:00.066Z,7.57
2023-01-10T22:25:26.925Z,5.28
2023-01-10T22:27:53.604Z,5.47
2023-01-10T22:30:21.642Z,3.70
2023-01-10T22:32:48.417Z,4.55
2023-01-10T22:35:15.245Z,6.40
2023-01-10T22:37:41.967Z,4.15
2023-01-10T22:40:10.195Z,4.45
2023-01-10T22:42:36.919Z,8.50
2023-01-10T22:45:04.280Z,4.95
2023-01-10T22:47:32.794Z,3.05
2023-01-10T22:49:59.530Z,4.40
2023-01-10T22:52:26.224Z,4.47
2023-01-10T22:54:53.040Z,7.35
2023-01-10T22:57:19.761Z,6.80
2023-01-10T22:59:46.448Z,6.25
2023-01-10T23:02:13.215Z,5.13
2023-01-10T23:04:41.351Z,4.97
2023-01-10T23:07:08.020Z,5.25
2023-01-10T23:09:34.750Z,4.93
2023-01-10T23:12:01.443Z,8.13
2023-01-10T23:14:28.228Z,6.93
2023-01-10T23:16:54.996Z,6.65
2023-01-10T23:19:21.782Z,4.78
2023-01-10T23:21:49.823Z,5.45
2023-01-10T23:24:16.548Z,9.52
2023-01-10T23:26:43.278Z,3.67
2023-01-10T23:29:09.959Z,2.42
2023-01-10T23:31:36.700Z,4.03
2023-01-10T23:34:03.858Z,3.33
2023-01-10T23:36:30.590Z,3.88
2023-01-10T23:38:59.038Z,3.97
2023-01-10T23:41:25.747Z,3.60
2023-01-10T23:43:52.591Z,2.90
2023-01-10T23:46:19.323Z,4.32
2023-01-10T23:48:46.044Z,2.72
2023-01-10T23:51:12.867Z,2.28
2023-01-10T23:53:39.874Z,3.67
2023-01-10T23:56:09.545Z,1.48
2023-01-10T23:58:36.515Z,3.05
